createdAt,value
2022-12-02T00:01:55.264Z,18.4
2022-12-02T00:06:49.793Z,18.4
2022-12-02T00:11:44.419Z,18.3
2022-12-02T00:16:38.257Z,18.3
2022-12-02T00:21:32.960Z,18.4
2022-12-02T00:26:27.154Z,18.3
2022-12-02T00:31:21.887Z,18.3
2022-12-02T00:36:16.694Z,18.3
2022-12-02T00:41:11.565Z,18.3
2022-12-02T00:46:06.311Z,18.3
2022-12-02T00:51:00.253Z,18.2
2022-12-02T00:55:54.854Z,18.2
2022-12-02T01:00:49.703Z,18.2
2022-12-02T01:05:44.330Z,18.1
2022-12-02T01:10:39.027Z,18.2
2022-12-02T01:15:33.631Z,18.2
2022-12-02T01:20:28.552Z,18.1
2022-12-02T01:25:23.277Z,18
2022-12-02T01:30:18.078Z,18.1
2022-12-02T01:35:12.471Z,18
2022-12-02T01:40:06.999Z,18
2022-12-02T01:45:01.612Z,18
2022-12-02T01:49:56.139Z,17.9
2022-12-02T01:54:51.107Z,17.8
2022-12-02T01:59:45.296Z,17.9
2022-12-02T02:04:39.851Z,17.9
2022-12-02T02:09:34.761Z,18
2022-12-02T02:14:29.619Z,17.8
2022-12-02T02:19:24.108Z,17.7
2022-12-02T02:24:18.940Z,17.7
2022-12-02T02:29:13.905Z,17.8
2022-12-02T02:34:07.977Z,17.7
2022-12-02T02:39:02.789Z,17.6
2022-12-02T02:43:57.491Z,17.7
2022-12-02T02:48:52.143Z,17.7
2022-12-02T02:53:46.773Z,17.6
2022-12-02T02:58:41.492Z,17.7
2022-12-02T03:03:36.193Z,17.6
2022-12-02T03:08:31.101Z,17.5
2022-12-02T03:13:25.868Z,17.5
2022-12-02T03:18:20.506Z,17.4
2022-12-02T03:23:15.258Z,17.4
2022-12-02T03:28:10.271Z,17.4
2022-12-02T03:33:04.844Z,17.4
2022-12-02T03:37:59.761Z,17.3
2022-12-02T03:42:54.539Z,17.4
2022-12-02T03:47:49.003Z,17.3
2022-12-02T03:52:43.678Z,17.3
2022-12-02T03:57:38.289Z,17.3
2022-12-02T04:02:32.437Z,17.3
2022-12-02T04:07:27.131Z,17.1
2022-12-02T04:12:21.817Z,17.2
2022-12-02T04:17:16.628Z,17.1
2022-12-02T04:22:11.228Z,17.1
2022-12-02T04:27:06.021Z,17.1
2022-12-02T04:32:00.747Z,17
2022-12-02T04:36:55.607Z,17
2022-12-02T04:41:50.164Z,17.1
2022-12-02T04:46:44.840Z,17.1
2022-12-02T04:51:39.442Z,17.1
2022-12-02T04:56:33.200Z,17
2022-12-02T05:01:27.708Z,17
2022-12-02T05:06:21.838Z,17.1
2022-12-02T05:11:16.716Z,17
2022-12-02T05:16:11.647Z,17
2022-12-02T05:21:06.164Z,17.2
2022-12-02T05:26:00.216Z,17.4
2022-12-02T05:30:55.232Z,17.6
2022-12-02T05:35:49.995Z,17.8
2022-12-02T05:40:44.879Z,18.3
2022-12-02T05:45:39.073Z,18.5
2022-12-02T05:50:35.255Z,18.8
2022-12-02T05:55:30.087Z,19.1
2022-12-02T06:00:25.058Z,19.2
2022-12-02T06:05:19.871Z,19.5
2022-12-02T06:10:14.646Z,19.7
2022-12-02T06:15:09.790Z,20.1
2022-12-02T06:20:04.838Z,20.4
2022-12-02T06:24:59.577Z,20.6
2022-12-02T06:29:54.448Z,20.5
2022-12-02T06:34:49.475Z,20.6
2022-12-02T06:39:58.489Z,20.6
2022-12-02T06:44:38.627Z,20.5
2022-12-02T06:49:33.619Z,20.6
2022-12-02T06:54:28.250Z,20.5
2022-12-02T06:59:20.786Z,19
2022-12-02T07:04:13.196Z,17
2022-12-02T07:09:07.216Z,16.7
2022-12-02T07:14:03.100Z,18
2022-12-02T07:18:58.464Z,18.5
2022-12-02T07:23:53.349Z,18.6
2022-12-02T07:28:48.366Z,18.8
2022-12-02T07:33:43.130Z,18.8
2022-12-02T07:39:04.552Z,18.8
2022-12-02T07:43:32.255Z,18.8
2022-12-02T07:48:27.071Z,18.8
2022-12-02T07:53:21.643Z,18.8
2022-12-02T07:58:16.393Z,18.8
2022-12-02T08:03:11.081Z,18.7
2022-12-02T08:08:05.213Z,18.7
2022-12-02T08:12:59.284Z,18.6
2022-12-02T08:17:53.799Z,18.6
2022-12-02T08:22:48.312Z,18.6
2022-12-02T08:27:45.433Z,18.5
2022-12-02T08:32:37.497Z,18.5
2022-12-02T08:37:32.209Z,18.5
2022-12-02T08:42:26.853Z,18.4
2022-12-02T08:47:21.705Z,18.4
2022-12-02T08:52:16.536Z,18.2
2022-12-02T08:57:11.190Z,18.3
2022-12-02T09:02:05.947Z,18.1
2022-12-02T09:06:59.961Z,18.1
2022-12-02T09:11:54.576Z,18.1
2022-12-02T09:16:49.382Z,18
2022-12-02T09:21:43.470Z,17.9
2022-12-02T09:26:38.078Z,17.9
2022-12-02T09:31:33.026Z,17.8
2022-12-02T09:36:27.509Z,17.7
2022-12-02T09:41:21.968Z,17.7
2022-12-02T09:46:21.091Z,17.6
2022-12-02T09:51:11.311Z,17.6
2022-12-02T09:56:05.950Z,17.6
2022-12-02T10:01:00.758Z,17.6
2022-12-02T10:05:55.199Z,17.5
2022-12-02T10:10:49.124Z,17.4
2022-12-02T10:15:44.033Z,17.4
2022-12-02T10:20:38.811Z,17.3
2022-12-02T10:25:33.620Z,17.3
2022-12-02T10:30:28.521Z,17.3
2022-12-02T10:35:22.333Z,17.2
2022-12-02T10:40:16.730Z,17.2
2022-12-02T10:45:11.399Z,17.2
2022-12-02T10:50:05.962Z,17.1
2022-12-02T10:55:00.517Z,17.1
2022-12-02T10:59:54.925Z,17
2022-12-02T11:04:49.635Z,17.1
2022-12-02T11:09:44.026Z,17
2022-12-02T11:14:38.723Z,17
2022-12-02T11:19:33.125Z,16.9
2022-12-02T11:24:27.717Z,16.9
2022-12-02T11:29:22.391Z,16.8
2022-12-02T11:34:17.194Z,16.8
2022-12-02T11:39:11.717Z,16.8
2022-12-02T11:44:06.327Z,16.8
2022-12-02T11:49:00.948Z,16.8
2022-12-02T11:53:55.606Z,16.7
2022-12-02T11:58:50.652Z,16.7
2022-12-02T12:03:45.058Z,16.7
2022-12-02T12:08:39.592Z,16.6
2022-12-02T12:13:37.263Z,16.5
2022-12-02T12:18:28.838Z,16.5
2022-12-02T12:23:23.292Z,16.5
2022-12-02T12:28:17.668Z,16.5
2022-12-02T12:33:12.311Z,16.5
2022-12-02T12:38:06.758Z,16.5
2022-12-02T12:43:01.165Z,16.4
2022-12-02T12:47:55.934Z,16.4
2022-12-02T12:52:50.202Z,16.4
2022-12-02T12:57:44.944Z,16.4
2022-12-02T13:02:39.701Z,16.3
2022-12-02T13:07:34.425Z,16.3
2022-12-02T13:12:29.402Z,16.3
2022-12-02T13:17:24.032Z,16.3
2022-12-02T13:22:18.842Z,16.2
2022-12-02T13:27:13.385Z,16.2
2022-12-02T13:32:08.060Z,16.3
2022-12-02T13:37:02.763Z,16.3
2022-12-02T13:41:57.572Z,16.4
2022-12-02T13:46:52.497Z,16.6
2022-12-02T13:51:47.268Z,16.7
2022-12-02T13:56:42.150Z,17
2022-12-02T14:01:37.038Z,17.2
2022-12-02T14:06:32.020Z,17.5
2022-12-02T14:11:26.984Z,17.8
2022-12-02T14:16:22.058Z,18.2
2022-12-02T14:21:17.123Z,18.4
2022-12-02T14:26:12.284Z,18.8
2022-12-02T14:31:13.617Z,19.1
2022-12-02T14:36:02.289Z,19.3
2022-12-02T14:40:56.649Z,19.5
2022-12-02T14:45:51.585Z,19.6
2022-12-02T14:50:46.362Z,19.7
2022-12-02T14:55:41.421Z,19.7
2022-12-02T15:00:36.196Z,19.8
2022-12-02T15:05:31.187Z,19.8
2022-12-02T15:10:26.723Z,19.8
2022-12-02T15:15:38.453Z,19.8
2022-12-02T15:20:15.954Z,19.7
2022-12-02T15:25:10.874Z,19.7
2022-12-02T15:30:05.711Z,19.7
2022-12-02T15:35:00.251Z,19.7
2022-12-02T15:39:55.296Z,19.6
2022-12-02T15:44:50.036Z,19.5
2022-12-02T15:49:44.468Z,19.5
2022-12-02T15:54:38.471Z,19.4
2022-12-02T15:59:32.939Z,19.3
2022-12-02T16:04:27.651Z,19.3
2022-12-02T16:09:22.642Z,19.2
2022-12-02T16:14:17.572Z,19.3
2022-12-02T16:19:12.496Z,19.3
2022-12-02T16:24:07.752Z,19.4
2022-12-02T16:29:02.671Z,19.4
2022-12-02T16:33:57.693Z,19.5
2022-12-02T16:38:52.991Z,19.7
2022-12-02T16:43:48.184Z,19.9
2022-12-02T16:48:42.974Z,20.2
2022-12-02T16:53:38.055Z,20.5
2022-12-02T16:58:33.089Z,20.7
2022-12-02T17:03:28.185Z,20.9
2022-12-02T17:08:23.123Z,21
2022-12-02T17:13:17.309Z,20.9
2022-12-02T17:18:12.067Z,20.9
2022-12-02T17:23:06.842Z,21
2022-12-02T17:28:01.469Z,21
2022-12-02T17:32:57.061Z,20.7
2022-12-02T17:37:51.036Z,20.7
2022-12-02T17:42:45.859Z,20.6
2022-12-02T17:47:39.926Z,20.5
2022-12-02T17:52:34.794Z,20.5
2022-12-02T17:57:29.504Z,20.2
2022-12-02T18:02:24.469Z,20.1
2022-12-02T18:07:18.841Z,19.9
2022-12-02T18:12:13.723Z,19.9
2022-12-02T18:17:08.727Z,19.9
2022-12-02T18:22:03.668Z,19.8
2022-12-02T18:26:58.129Z,19.6
2022-12-02T18:31:51.977Z,19.7
2022-12-02T18:36:46.804Z,19.6
2022-12-02T18:41:41.377Z,19.6
2022-12-02T18:46:35.923Z,19.6
2022-12-02T18:51:30.803Z,19.5
2022-12-02T18:56:25.537Z,19.8
2022-12-02T19:01:20.581Z,19.9
2022-12-02T19:06:15.548Z,20
2022-12-02T19:11:10.485Z,20.4
2022-12-02T19:16:05.511Z,20.7
2022-12-02T19:21:00.597Z,20.9
2022-12-02T19:25:55.560Z,21.2
2022-12-02T19:30:50.530Z,21.4
2022-12-02T19:35:45.694Z,21.8
2022-12-02T19:40:44.548Z,22.1
2022-12-02T19:45:34.711Z,22.1
2022-12-02T19:50:29.444Z,22.3
2022-12-02T19:55:24.329Z,22.4
2022-12-02T20:00:19.265Z,22.3
2022-12-02T20:05:14.207Z,22.3
2022-12-02T20:10:09.076Z,22.2
2022-12-02T20:15:03.924Z,22.2
2022-12-02T20:19:58.838Z,22.1
2022-12-02T20:24:53.691Z,22
2022-12-02T20:29:47.221Z,21.8
2022-12-02T20:34:41.901Z,21.5
2022-12-02T20:39:36.785Z,21.3
2022-12-02T20:44:31.811Z,21.2
2022-12-02T20:49:25.860Z,21
2022-12-02T20:54:19.899Z,20.9
2022-12-02T20:59:13.782Z,20.8
2022-12-02T21:04:08.401Z,20.5
2022-12-02T21:09:02.783Z,20.7
2022-12-02T21:13:57.741Z,20.7
2022-12-02T21:18:52.589Z,20.7
2022-12-02T21:23:47.228Z,20.6
2022-12-02T21:28:41.876Z,20.5
2022-12-02T21:33:35.898Z,20.4
2022-12-02T21:38:30.543Z,20.3
2022-12-02T21:43:25.211Z,20.3
2022-12-02T21:48:19.946Z,20.2
2022-12-02T21:53:14.444Z,20.3
2022-12-02T21:58:09.117Z,20.1
2022-12-02T22:03:03.866Z,20
2022-12-02T22:07:58.321Z,20
2022-12-02T22:12:53.060Z,19.8
2022-12-02T22:17:47.878Z,19.8
2022-12-02T22:22:42.377Z,19.8
2022-12-02T22:27:36.217Z,19.7
2022-12-02T22:32:31.064Z,19.7
2022-12-02T22:37:25.890Z,19.5
2022-12-02T22:42:20.816Z,19.5
2022-12-02T22:47:15.573Z,19.4
2022-12-02T22:52:10.529Z,19.4
2022-12-02T22:57:05.358Z,19.3
2022-12-02T23:02:00.161Z,19.3
2022-12-02T23:06:54.794Z,19.2
2022-12-02T23:11:49.297Z,19.1
2022-12-02T23:16:43.991Z,19.1
2022-12-02T23:21:38.584Z,19.1
2022-12-02T23:26:33.278Z,19
2022-12-02T23:31:28.110Z,19
2022-12-02T23:36:22.749Z,18.9
2022-12-02T23:41:17.626Z,18.8
2022-12-02T23:46:12.468Z,18.8
2022-12-02T23:51:07.165Z,18.7
2022-12-02T23:56:01.959Z,18.7
